createdAt,value
2023-06-11T00:00:29.829Z,96.40
2023-06-11T00:01:32.789Z,96.61
2023-06-11T00:02:35.942Z,96.82
2023-06-11T00:03:42.599Z,96.64
2023-06-11T00:04:47.027Z,96.82
2023-06-11T00:05:50.294Z,96.68
2023-06-11T00:06:57.657Z,97.27
2023-06-11T00:08:03.685Z,97.59
2023-06-11T00:09:07.311Z,97.59
2023-06-11T00:10:10.496Z,97.72
2023-06-11T00:11:13.430Z,98.07
2023-06-11T00:12:16.322Z,98.38
2023-06-11T00:13:19.258Z,98.54
2023-06-11T00:14:23.486Z,98.75
2023-06-11T00:15:26.939Z,98.86
2023-06-11T00:16:34.796Z,98.42
2023-06-11T00:17:38.414Z,98.58
2023-06-11T00:18:42.600Z,97.80
2023-06-11T00:19:45.938Z,97.65
2023-06-11T00:20:49.302Z,97.72
2023-06-11T00:21:52.373Z,97.33
2023-06-11T00:22:55.268Z,96.57
2023-06-11T00:23:58.423Z,94.99
2023-06-11T00:25:01.532Z,95.00
2023-06-11T00:26:11.478Z,95.54
2023-06-11T00:27:14.488Z,95.98
2023-06-11T00:28:17.265Z,95.75
2023-06-11T00:29:20.202Z,96.10
2023-06-11T00:30:23.019Z,95.76
2023-06-11T00:31:26.184Z,96.17
2023-06-11T00:32:29.113Z,94.74
2023-06-11T00:33:32.030Z,94.53
2023-06-11T00:34:34.945Z,94.49
2023-06-11T00:35:38.768Z,94.38
2023-06-11T00:36:41.991Z,94.40
2023-06-11T00:37:45.104Z,94.04
2023-06-11T00:38:49.740Z,93.65
2023-06-11T00:39:52.565Z,93.84
2023-06-11T00:40:55.703Z,93.91
2023-06-11T00:41:59.477Z,94.22
2023-06-11T00:43:05.452Z,94.34
2023-06-11T00:44:09.193Z,94.52
2023-06-11T00:45:12.831Z,94.14
2023-06-11T00:46:17.849Z,92.71
2023-06-11T00:47:20.848Z,93.39
2023-06-11T00:48:23.735Z,93.72
2023-06-11T00:49:27.040Z,93.43
2023-06-11T00:50:30.820Z,93.75
2023-06-11T00:51:33.687Z,93.49
2023-06-11T00:52:37.000Z,93.42
2023-06-11T00:53:39.848Z,92.62
2023-06-11T00:54:43.643Z,92.90
2023-06-11T00:55:47.128Z,93.45
2023-06-11T00:56:50.208Z,93.42
2023-06-11T00:57:54.630Z,93.17
2023-06-11T00:59:01.037Z,92.74
2023-06-11T01:00:12.594Z,92.28
2023-06-11T01:01:27.056Z,92.58
2023-06-11T01:02:35.530Z,92.33
2023-06-11T01:03:38.383Z,92.01
2023-06-11T01:04:43.266Z,92.15
2023-06-11T01:06:14.475Z,92.58
2023-06-11T01:07:18.261Z,91.71
2023-06-11T01:08:22.375Z,91.58
2023-06-11T01:09:27.516Z,91.66
2023-06-11T01:10:30.992Z,92.25
2023-06-11T01:11:37.013Z,92.92
2023-06-11T01:12:40.002Z,92.53
2023-06-11T01:13:43.242Z,92.18
2023-06-11T01:14:46.205Z,91.31
2023-06-11T01:15:49.900Z,90.67
2023-06-11T01:17:06.210Z,90.89
2023-06-11T01:18:12.065Z,90.10
2023-06-11T01:19:34.014Z,90.44
2023-06-11T01:20:46.507Z,90.48
2023-06-11T01:21:55.326Z,90.60
2023-06-11T01:23:22.246Z,90.00
2023-06-11T01:25:13.241Z,90.06
2023-06-11T01:26:45.081Z,89.85
2023-06-11T01:27:48.206Z,90.30
2023-06-11T01:28:58.334Z,89.23
2023-06-11T01:30:04.674Z,88.88
2023-06-11T01:31:16.356Z,89.26
2023-06-11T01:32:25.372Z,89.79
2023-06-11T01:33:28.817Z,88.74
2023-06-11T01:34:32.804Z,89.04
2023-06-11T01:35:36.960Z,88.67
2023-06-11T01:36:40.786Z,88.43
2023-06-11T01:37:46.901Z,89.03
2023-06-11T01:38:52.566Z,89.41
2023-06-11T01:39:55.667Z,89.64
2023-06-11T01:41:00.313Z,90.16
2023-06-11T01:42:03.262Z,90.14
2023-06-11T01:43:06.275Z,89.59
2023-06-11T01:44:09.314Z,89.40
2023-06-11T01:45:12.675Z,89.12
2023-06-11T01:46:16.031Z,89.34
2023-06-11T01:47:19.112Z,88.69
2023-06-11T01:48:22.489Z,88.52
2023-06-11T01:49:25.697Z,88.78
2023-06-11T01:50:28.907Z,88.08
2023-06-11T01:51:31.912Z,87.78
2023-06-11T01:52:34.796Z,88.02
2023-06-11T01:53:37.771Z,87.90
2023-06-11T01:54:40.747Z,88.12
2023-06-11T01:55:44.244Z,88.35
2023-06-11T01:56:47.102Z,88.76
2023-06-11T01:57:50.236Z,88.64
2023-06-11T01:58:53.228Z,88.68
2023-06-11T01:59:56.283Z,87.73
2023-06-11T02:00:59.746Z,87.05
2023-06-11T02:02:02.873Z,86.74
2023-06-11T02:03:06.955Z,86.95
2023-06-11T02:04:10.084Z,87.56
2023-06-11T02:05:13.440Z,87.67
2023-06-11T02:06:16.986Z,87.12
2023-06-11T02:07:20.120Z,87.46
2023-06-11T02:08:23.148Z,87.13
2023-06-11T02:09:26.193Z,86.39
2023-06-11T02:10:29.192Z,86.81
2023-06-11T02:11:32.238Z,86.48
2023-06-11T02:12:35.100Z,86.67
2023-06-11T02:13:38.024Z,87.40
2023-06-11T02:14:40.986Z,87.82
2023-06-11T02:15:43.741Z,88.00
2023-06-11T02:16:46.835Z,88.34
2023-06-11T02:17:49.847Z,87.19
2023-06-11T02:18:52.728Z,86.94
2023-06-11T02:19:55.818Z,87.05
2023-06-11T02:20:59.266Z,87.06
2023-06-11T02:22:02.146Z,87.04
2023-06-11T02:23:05.205Z,87.33
2023-06-11T02:24:08.565Z,87.66
2023-06-11T02:25:11.995Z,87.86
2023-06-11T02:26:15.225Z,87.90
2023-06-11T02:27:18.130Z,87.81
2023-06-11T02:28:21.166Z,87.18
2023-06-11T02:29:24.117Z,87.38
2023-06-11T02:30:27.077Z,87.41
2023-06-11T02:31:30.347Z,87.41
2023-06-11T02:32:33.405Z,87.04
2023-06-11T02:33:36.454Z,87.57
2023-06-11T02:34:39.300Z,87.08
2023-06-11T02:35:42.301Z,87.28
2023-06-11T02:36:45.217Z,87.12
2023-06-11T02:37:48.113Z,87.56
2023-06-11T02:38:51.186Z,87.08
2023-06-11T02:39:54.166Z,87.13
2023-06-11T02:40:57.095Z,86.85
2023-06-11T02:42:00.055Z,87.42
2023-06-11T02:43:02.892Z,87.69
2023-06-11T02:44:05.843Z,87.88
2023-06-11T02:45:09.581Z,87.71
2023-06-11T02:46:13.149Z,87.37
2023-06-11T02:47:16.261Z,87.13
2023-06-11T02:48:19.088Z,87.31
2023-06-11T02:49:22.188Z,87.42
2023-06-11T02:50:25.103Z,86.90
2023-06-11T02:51:28.040Z,86.27
2023-06-11T02:52:31.016Z,86.95
2023-06-11T02:53:33.958Z,87.15
2023-06-11T02:54:36.886Z,87.39
2023-06-11T02:55:39.777Z,86.83
2023-06-11T02:56:42.706Z,85.97
2023-06-11T02:57:46.011Z,86.23
2023-06-11T02:58:49.042Z,86.37
2023-06-11T02:59:52.137Z,86.97
2023-06-11T03:00:55.068Z,87.30
2023-06-11T03:01:58.022Z,87.00
2023-06-11T03:03:01.039Z,87.09
2023-06-11T03:04:04.278Z,87.03
2023-06-11T03:05:07.574Z,87.27
2023-06-11T03:06:10.582Z,87.54
2023-06-11T03:07:13.503Z,87.55
2023-06-11T03:08:16.426Z,87.54
2023-06-11T03:09:19.353Z,87.57
2023-06-11T03:10:22.327Z,87.32
2023-06-11T03:11:25.300Z,87.51
2023-06-11T03:12:28.398Z,87.08
2023-06-11T03:13:31.361Z,86.95
2023-06-11T03:14:34.237Z,86.05
2023-06-11T03:15:37.196Z,86.68
2023-06-11T03:16:40.094Z,86.28
2023-06-11T03:17:43.172Z,86.50
2023-06-11T03:18:46.196Z,86.86
2023-06-11T03:19:49.501Z,86.67
2023-06-11T03:20:52.475Z,86.32
2023-06-11T03:21:55.405Z,85.72
2023-06-11T03:22:58.200Z,85.76
2023-06-11T03:24:01.105Z,85.94
2023-06-11T03:25:04.340Z,85.19
2023-06-11T03:26:07.291Z,85.57
2023-06-11T03:27:11.537Z,85.71
2023-06-11T03:28:14.528Z,86.15
2023-06-11T03:29:17.812Z,86.49
2023-06-11T03:30:21.020Z,86.33
2023-06-11T03:31:24.011Z,86.16
2023-06-11T03:32:27.080Z,86.08
2023-06-11T03:33:30.089Z,85.47
2023-06-11T03:34:33.042Z,85.82
2023-06-11T03:35:35.962Z,85.27
2023-06-11T03:36:38.878Z,85.86
2023-06-11T03:37:41.747Z,86.41
2023-06-11T03:38:44.724Z,86.54
2023-06-11T03:39:47.872Z,86.76
2023-06-11T03:40:51.064Z,86.23
2023-06-11T03:41:54.058Z,86.15
2023-06-11T03:42:58.501Z,85.28
2023-06-11T03:44:03.772Z,85.38
2023-06-11T03:45:07.171Z,86.23
2023-06-11T03:46:10.132Z,85.97
2023-06-11T03:47:13.181Z,85.86
2023-06-11T03:48:16.149Z,85.66
2023-06-11T03:49:19.035Z,86.06
2023-06-11T03:50:22.060Z,86.12
2023-06-11T03:51:25.166Z,85.28
2023-06-11T03:52:28.248Z,85.58
2023-06-11T03:53:31.776Z,84.92
2023-06-11T03:54:34.800Z,85.40
2023-06-11T03:55:37.596Z,86.03
2023-06-11T03:56:40.613Z,85.30
2023-06-11T03:57:43.787Z,85.19
2023-06-11T03:58:46.720Z,84.89
2023-06-11T03:59:49.675Z,84.55
2023-06-11T04:00:52.885Z,85.00
2023-06-11T04:01:55.849Z,85.97
2023-06-11T04:03:00.472Z,85.74
2023-06-11T04:04:03.911Z,85.42
2023-06-11T04:05:07.461Z,85.77
2023-06-11T04:06:10.412Z,85.35
2023-06-11T04:07:13.467Z,84.81
2023-06-11T04:08:16.749Z,85.25
2023-06-11T04:09:19.826Z,85.25
2023-06-11T04:10:23.877Z,85.63
2023-06-11T04:11:26.836Z,85.97
2023-06-11T04:12:30.155Z,86.15
2023-06-11T04:13:33.002Z,86.49
2023-06-11T04:14:36.074Z,86.12
2023-06-11T04:15:38.908Z,85.93
2023-06-11T04:16:41.884Z,85.60
2023-06-11T04:17:44.769Z,86.02
2023-06-11T04:18:49.293Z,86.63
2023-06-11T04:19:52.058Z,86.55
2023-06-11T04:20:55.184Z,86.30
2023-06-11T04:21:58.277Z,86.79
2023-06-11T04:23:01.174Z,87.06
2023-06-11T04:24:08.328Z,87.77
2023-06-11T04:25:13.750Z,87.63
2023-06-11T04:26:20.766Z,86.98
2023-06-11T04:27:24.016Z,86.68
2023-06-11T04:28:27.558Z,86.16
2023-06-11T04:29:30.936Z,85.33
2023-06-11T04:30:35.023Z,86.60
2023-06-11T04:31:38.082Z,86.35
2023-06-11T04:32:41.773Z,85.51
2023-06-11T04:33:47.399Z,84.88
2023-06-11T04:34:50.389Z,85.36
2023-06-11T04:35:53.238Z,85.32
2023-06-11T04:36:59.976Z,86.15
2023-06-11T04:38:04.509Z,86.58
2023-06-11T04:39:09.554Z,85.30
2023-06-11T04:40:12.532Z,84.41
2023-06-11T04:41:15.520Z,84.82
2023-06-11T04:42:18.467Z,84.96
2023-06-11T04:43:23.675Z,84.71
2023-06-11T04:44:27.435Z,85.14
2023-06-11T04:45:31.889Z,85.32
2023-06-11T04:46:35.857Z,85.02
2023-06-11T04:47:39.042Z,84.77
2023-06-11T04:48:42.658Z,83.18
2023-06-11T04:49:45.595Z,83.28
2023-06-11T04:50:53.168Z,83.89
2023-06-11T04:51:59.505Z,83.98
2023-06-11T04:53:02.999Z,83.71
2023-06-11T04:54:08.886Z,84.03
2023-06-11T04:55:13.761Z,83.53
2023-06-11T04:56:16.845Z,83.20
2023-06-11T04:57:19.736Z,82.93
2023-06-11T04:58:26.854Z,83.74
2023-06-11T04:59:29.844Z,83.92
2023-06-11T05:00:40.355Z,83.89
2023-06-11T05:01:49.728Z,84.00
2023-06-11T05:02:53.356Z,84.35
2023-06-11T05:03:56.234Z,84.01
2023-06-11T05:04:59.179Z,83.36
2023-06-11T05:06:03.443Z,83.17
2023-06-11T05:07:06.609Z,82.43
2023-06-11T05:08:09.470Z,82.62
2023-06-11T05:09:14.030Z,82.72
2023-06-11T05:10:19.106Z,82.75
2023-06-11T05:11:22.227Z,83.06
2023-06-11T05:12:25.191Z,82.45
2023-06-11T05:13:28.421Z,81.95
2023-06-11T05:14:31.202Z,80.55
2023-06-11T05:15:34.125Z,80.94
2023-06-11T05:16:37.415Z,81.34
2023-06-11T05:17:40.810Z,81.09
2023-06-11T05:18:43.606Z,80.95
2023-06-11T05:19:46.964Z,81.28
2023-06-11T05:20:49.971Z,80.48
2023-06-11T05:21:53.059Z,80.09
2023-06-11T05:23:00.382Z,79.75
2023-06-11T05:24:09.457Z,80.08
2023-06-11T05:25:16.735Z,79.92
2023-06-11T05:26:20.494Z,80.51
2023-06-11T05:27:25.141Z,80.25
2023-06-11T05:28:28.744Z,79.65
2023-06-11T05:29:31.864Z,79.73
2023-06-11T05:30:38.273Z,79.10
2023-06-11T05:31:41.461Z,79.89
2023-06-11T05:32:45.142Z,78.89
2023-06-11T05:33:48.080Z,79.12
2023-06-11T05:34:51.175Z,79.77
2023-06-11T05:35:54.677Z,80.15
2023-06-11T05:36:57.535Z,79.86
2023-06-11T05:38:05.059Z,78.52
2023-06-11T05:39:07.874Z,78.95
2023-06-11T05:40:12.840Z,79.04
2023-06-11T05:41:16.263Z,78.87
2023-06-11T05:42:19.283Z,78.67
2023-06-11T05:43:22.145Z,79.10
2023-06-11T05:44:25.304Z,78.50
2023-06-11T05:45:28.284Z,78.33
2023-06-11T05:46:32.280Z,77.67
2023-06-11T05:47:35.905Z,76.98
2023-06-11T05:48:38.936Z,77.04
2023-06-11T05:49:41.848Z,77.01
2023-06-11T05:50:44.798Z,77.04
2023-06-11T05:51:47.825Z,76.71
2023-06-11T05:52:50.888Z,76.96
2023-06-11T05:53:53.888Z,77.24
2023-06-11T05:54:56.805Z,77.03
2023-06-11T05:56:04.948Z,77.05
2023-06-11T05:57:21.689Z,76.30
2023-06-11T05:58:24.491Z,76.79
2023-06-11T05:59:27.329Z,76.57
2023-06-11T06:00:30.266Z,76.30
2023-06-11T06:01:34.568Z,76.88
2023-06-11T06:02:37.783Z,75.97
2023-06-11T06:03:41.044Z,75.74
2023-06-11T06:04:48.458Z,76.42
2023-06-11T06:05:51.346Z,76.41
2023-06-11T06:06:54.170Z,77.07
2023-06-11T06:07:57.491Z,77.22
2023-06-11T06:09:00.565Z,76.05
2023-06-11T06:10:04.198Z,75.98
2023-06-11T06:11:07.323Z,76.70
2023-06-11T06:12:11.725Z,76.14
2023-06-11T06:13:14.509Z,76.72
2023-06-11T06:14:17.427Z,76.65
2023-06-11T06:15:20.349Z,76.65
2023-06-11T06:16:24.703Z,76.97
2023-06-11T06:17:29.695Z,75.45
2023-06-11T06:18:34.709Z,74.85
2023-06-11T06:19:37.671Z,75.75
2023-06-11T06:20:42.102Z,76.29
2023-06-11T06:21:45.097Z,76.19
2023-06-11T06:22:47.932Z,75.83
2023-06-11T06:23:53.057Z,76.48
2023-06-11T06:24:58.613Z,76.80
2023-06-11T06:26:03.005Z,74.62
2023-06-11T06:27:06.345Z,73.84
2023-06-11T06:28:09.345Z,73.91
2023-06-11T06:29:15.598Z,74.23
2023-06-11T06:30:19.262Z,73.23
2023-06-11T06:31:24.493Z,73.31
2023-06-11T06:32:27.582Z,73.97
2023-06-11T06:33:35.408Z,74.57
2023-06-11T06:34:38.402Z,72.91
2023-06-11T06:35:41.547Z,72.22
2023-06-11T06:36:44.517Z,72.80
2023-06-11T06:37:47.354Z,72.51
2023-06-11T06:38:50.343Z,72.59
2023-06-11T06:39:53.222Z,72.47
2023-06-11T06:40:56.293Z,73.34
2023-06-11T06:41:59.099Z,73.49
2023-06-11T06:43:02.901Z,73.69
2023-06-11T06:44:05.853Z,72.34
2023-06-11T06:45:10.148Z,73.07
2023-06-11T06:46:13.736Z,73.74
2023-06-11T06:47:16.754Z,73.80
2023-06-11T06:48:19.933Z,72.98
2023-06-11T06:49:23.048Z,71.89
2023-06-11T06:50:26.138Z,70.61
2023-06-11T06:51:34.129Z,71.93
2023-06-11T06:52:37.123Z,69.37
2023-06-11T06:53:41.339Z,69.83
2023-06-11T06:54:44.518Z,69.95
2023-06-11T06:55:49.403Z,70.20
2023-06-11T06:56:53.611Z,70.46
2023-06-11T06:57:56.620Z,69.69
2023-06-11T06:58:59.414Z,68.77
2023-06-11T07:00:02.769Z,68.86
2023-06-11T07:01:05.825Z,70.25
2023-06-11T07:02:10.134Z,71.09
2023-06-11T07:03:15.318Z,70.85
2023-06-11T07:04:18.329Z,70.46
2023-06-11T07:05:21.250Z,70.63
2023-06-11T07:06:26.412Z,69.03
2023-06-11T07:07:29.277Z,68.68
2023-06-11T07:08:32.167Z,70.62
2023-06-11T07:09:35.099Z,71.09
2023-06-11T07:10:37.922Z,70.68
2023-06-11T07:11:40.957Z,70.61
2023-06-11T07:12:43.777Z,70.09
2023-06-11T07:13:46.748Z,71.02
2023-06-11T07:14:49.689Z,71.00
2023-06-11T07:15:52.762Z,70.40
2023-06-11T07:16:55.805Z,70.93
2023-06-11T07:17:58.861Z,71.74
2023-06-11T07:19:01.745Z,71.90
2023-06-11T07:20:08.855Z,71.53
2023-06-11T07:21:12.118Z,69.07
2023-06-11T07:22:15.089Z,68.34
2023-06-11T07:23:21.018Z,67.91
2023-06-11T07:24:25.531Z,66.68
2023-06-11T07:25:32.397Z,67.99
2023-06-11T07:26:35.443Z,68.19
2023-06-11T07:27:38.352Z,66.80
2023-06-11T07:28:42.203Z,66.62
2023-06-11T07:29:45.331Z,68.15
2023-06-11T07:30:49.788Z,67.45
2023-06-11T07:31:52.790Z,68.89
2023-06-11T07:32:55.964Z,67.79
2023-06-11T07:33:58.797Z,67.99
2023-06-11T07:35:01.782Z,68.12
2023-06-11T07:36:05.303Z,69.31
2023-06-11T07:37:08.219Z,70.11
2023-06-11T07:38:11.108Z,69.11
2023-06-11T07:39:13.854Z,69.41
2023-06-11T07:40:17.558Z,69.59
2023-06-11T07:41:20.585Z,70.02
2023-06-11T07:42:23.430Z,69.89
2023-06-11T07:43:26.297Z,68.14
2023-06-11T07:44:29.240Z,68.39
2023-06-11T07:45:32.158Z,68.60
2023-06-11T07:46:35.204Z,68.83
2023-06-11T07:47:38.288Z,69.49
2023-06-11T07:48:43.304Z,69.71
2023-06-11T07:49:46.252Z,69.18
2023-06-11T07:50:50.643Z,69.51
2023-06-11T07:51:53.575Z,69.94
2023-06-11T07:52:57.813Z,70.15
2023-06-11T07:54:01.654Z,70.33
2023-06-11T07:55:04.972Z,70.17
2023-06-11T07:56:07.841Z,68.46
2023-06-11T07:57:11.209Z,69.13
2023-06-11T07:58:14.124Z,69.66
2023-06-11T07:59:17.110Z,70.12
2023-06-11T08:00:20.178Z,69.85
2023-06-11T08:01:23.250Z,70.43
2023-06-11T08:02:26.319Z,70.12
2023-06-11T08:03:29.619Z,69.12
2023-06-11T08:04:32.500Z,68.31
2023-06-11T08:05:35.435Z,66.68
2023-06-11T08:06:39.220Z,67.80
2023-06-11T08:07:42.482Z,68.39
2023-06-11T08:08:45.325Z,67.07
2023-06-11T08:09:48.317Z,67.84
2023-06-11T08:10:52.123Z,66.63
2023-06-11T08:11:55.087Z,67.51
2023-06-11T08:12:57.944Z,68.85
2023-06-11T08:14:01.020Z,68.37
2023-06-11T08:15:04.719Z,69.16
2023-06-11T08:16:09.034Z,66.75
2023-06-11T08:17:12.005Z,67.07
2023-06-11T08:18:17.194Z,66.13
2023-06-11T08:19:23.939Z,66.31
2023-06-11T08:20:27.067Z,66.94
2023-06-11T08:21:29.988Z,67.01
2023-06-11T08:22:33.197Z,67.94
2023-06-11T08:23:37.482Z,67.70
2023-06-11T08:24:40.406Z,65.40
2023-06-11T08:25:44.619Z,66.74
2023-06-11T08:26:47.546Z,68.29
2023-06-11T08:27:50.701Z,66.44
2023-06-11T08:28:53.750Z,66.85
2023-06-11T08:29:56.624Z,66.65
2023-06-11T08:30:59.542Z,67.69
2023-06-11T08:32:02.390Z,68.49
2023-06-11T08:33:05.502Z,69.15
2023-06-11T08:34:08.520Z,68.84
2023-06-11T08:35:11.609Z,67.47
2023-06-11T08:36:14.527Z,68.82
2023-06-11T08:37:17.771Z,66.92
2023-06-11T08:38:20.586Z,66.22
2023-06-11T08:39:24.025Z,66.56
2023-06-11T08:40:28.453Z,68.08
2023-06-11T08:41:33.024Z,67.19
2023-06-11T08:42:36.562Z,67.58
2023-06-11T08:43:39.704Z,68.15
2023-06-11T08:44:43.136Z,68.63
2023-06-11T08:45:47.221Z,67.52
2023-06-11T08:46:51.059Z,68.46
2023-06-11T08:48:02.403Z,67.99
2023-06-11T08:49:09.260Z,66.92
2023-06-11T08:50:12.460Z,66.52
2023-06-11T08:51:15.856Z,64.80
2023-06-11T08:52:19.538Z,64.48
2023-06-11T08:53:22.382Z,63.81
2023-06-11T08:54:25.913Z,64.92
2023-06-11T08:55:32.311Z,67.77
2023-06-11T08:56:35.939Z,67.69
2023-06-11T08:57:39.081Z,67.01
2023-06-11T08:58:42.851Z,65.30
2023-06-11T08:59:46.377Z,65.45
2023-06-11T09:00:49.381Z,65.44
2023-06-11T09:01:53.018Z,65.84
2023-06-11T09:02:56.470Z,65.85
2023-06-11T09:04:00.286Z,66.36
2023-06-11T09:05:06.091Z,65.85
2023-06-11T09:06:09.342Z,67.57
2023-06-11T09:07:12.219Z,68.37
2023-06-11T09:08:15.680Z,65.80
2023-06-11T09:09:18.766Z,65.22
2023-06-11T09:10:22.208Z,64.20
2023-06-11T09:11:25.244Z,64.12
2023-06-11T09:12:28.861Z,65.57
2023-06-11T09:13:31.871Z,64.56
2023-06-11T09:14:34.793Z,64.34
2023-06-11T09:15:37.715Z,65.83
2023-06-11T09:16:46.142Z,66.23
2023-06-11T09:17:49.321Z,66.09
2023-06-11T09:18:52.520Z,65.27
2023-06-11T09:19:56.513Z,65.43
2023-06-11T09:21:03.054Z,65.48
2023-06-11T09:22:06.448Z,65.69
2023-06-11T09:23:09.405Z,65.05
2023-06-11T09:24:12.603Z,63.97
2023-06-11T09:25:19.719Z,64.09
2023-06-11T09:26:22.697Z,64.67
2023-06-11T09:27:25.456Z,66.23
2023-06-11T09:28:38.321Z,66.50
2023-06-11T09:29:45.342Z,68.48
2023-06-11T09:30:56.046Z,65.38
2023-06-11T09:32:10.093Z,64.75
2023-06-11T09:33:28.495Z,63.75
2023-06-11T09:34:31.495Z,64.43
2023-06-11T09:35:34.327Z,63.90
2023-06-11T09:36:37.252Z,63.68
2023-06-11T09:37:48.667Z,63.29
2023-06-11T09:38:51.936Z,63.27
2023-06-11T09:39:55.741Z,63.38
2023-06-11T09:40:59.102Z,64.89
2023-06-11T09:42:02.313Z,64.82
2023-06-11T09:43:07.465Z,65.16
2023-06-11T09:44:10.327Z,64.21
2023-06-11T09:45:19.736Z,64.51
2023-06-11T09:46:24.269Z,64.90
2023-06-11T09:47:32.050Z,64.04
2023-06-11T09:48:35.185Z,64.23
2023-06-11T09:49:38.151Z,62.26
2023-06-11T09:50:42.936Z,63.02
2023-06-11T09:51:45.948Z,62.91
2023-06-11T09:52:49.655Z,63.62
2023-06-11T09:53:52.969Z,61.54
2023-06-11T09:54:57.263Z,61.76
2023-06-11T09:56:10.256Z,61.89
2023-06-11T09:57:17.554Z,62.84
2023-06-11T09:58:24.563Z,61.81
2023-06-11T09:59:29.163Z,62.11
2023-06-11T10:00:32.208Z,62.46
2023-06-11T10:01:35.267Z,60.59
2023-06-11T10:02:42.360Z,61.69
2023-06-11T10:03:46.646Z,63.13
2023-06-11T10:04:49.880Z,62.63
2023-06-11T10:05:53.825Z,61.28
2023-06-11T10:06:57.220Z,58.80
2023-06-11T10:08:10.105Z,59.21
2023-06-11T10:09:16.545Z,59.79
2023-06-11T10:10:23.418Z,60.42
2023-06-11T10:11:27.528Z,59.72
2023-06-11T10:12:35.903Z,58.79
2023-06-11T10:13:39.524Z,59.53
2023-06-11T10:14:42.364Z,60.42
2023-06-11T10:15:50.034Z,60.87
2023-06-11T10:16:55.440Z,61.18
2023-06-11T10:17:58.425Z,60.50
2023-06-11T10:19:06.370Z,61.62
2023-06-11T10:20:21.923Z,62.00
2023-06-11T10:21:53.426Z,61.77
2023-06-11T10:23:11.465Z,61.35
2023-06-11T10:24:25.394Z,60.91
2023-06-11T10:25:34.236Z,62.06
2023-06-11T10:26:37.387Z,62.73
2023-06-11T10:27:43.891Z,60.88
2023-06-11T10:28:50.652Z,59.55
2023-06-11T10:29:53.757Z,59.74
2023-06-11T10:30:56.681Z,59.33
2023-06-11T10:32:00.441Z,59.58
2023-06-11T10:33:03.481Z,59.79
2023-06-11T10:34:06.983Z,59.52
2023-06-11T10:35:21.946Z,60.03
2023-06-11T10:36:28.375Z,61.45
2023-06-11T10:37:33.876Z,61.45
2023-06-11T10:38:39.756Z,62.23
2023-06-11T10:39:52.457Z,62.18
2023-06-11T10:41:04.526Z,60.26
2023-06-11T10:42:08.438Z,60.97
2023-06-11T10:43:22.328Z,60.88
2023-06-11T10:44:26.113Z,62.12
2023-06-11T10:45:40.142Z,62.89
2023-06-11T10:46:55.882Z,62.04
2023-06-11T10:48:01.704Z,61.75
2023-06-11T10:49:15.465Z,61.35
2023-06-11T10:50:26.118Z,59.56
2023-06-11T10:51:40.435Z,58.94
2023-06-11T10:52:57.166Z,59.80
2023-06-11T10:54:00.749Z,60.55
2023-06-11T10:55:10.895Z,59.76
2023-06-11T10:56:14.680Z,59.85
2023-06-11T10:57:17.702Z,60.17
2023-06-11T10:58:24.790Z,60.31
2023-06-11T10:59:28.058Z,60.51
2023-06-11T11:00:34.505Z,59.92
2023-06-11T11:01:38.643Z,59.34
2023-06-11T11:02:41.752Z,58.73
2023-06-11T11:03:45.382Z,59.45
2023-06-11T11:04:54.751Z,60.84
2023-06-11T11:05:58.957Z,58.67
2023-06-11T11:07:12.756Z,62.07
2023-06-11T11:08:18.908Z,61.49
2023-06-11T11:09:24.290Z,61.94
2023-06-11T11:10:29.004Z,60.94
2023-06-11T11:11:31.954Z,60.69
2023-06-11T11:12:47.493Z,61.35
2023-06-11T11:13:51.730Z,61.88
2023-06-11T11:14:54.710Z,62.23
2023-06-11T11:16:00.183Z,62.50
2023-06-11T11:17:03.255Z,62.57
2023-06-11T11:18:06.299Z,63.70
2023-06-11T11:19:09.497Z,65.54
2023-06-11T11:20:15.398Z,64.47
2023-06-11T11:21:19.557Z,64.26
2023-06-11T11:22:22.268Z,64.08
2023-06-11T11:23:28.108Z,63.24
2023-06-11T11:24:38.974Z,63.49
2023-06-11T11:25:43.829Z,63.90
2023-06-11T11:26:47.281Z,64.18
2023-06-11T11:27:50.492Z,65.01
2023-06-11T11:28:53.356Z,64.92
2023-06-11T11:30:02.470Z,62.25
2023-06-11T11:31:07.193Z,61.58
2023-06-11T11:32:10.231Z,59.10
2023-06-11T11:33:13.156Z,60.11
2023-06-11T11:34:16.344Z,60.25
2023-06-11T11:35:19.737Z,60.03
2023-06-11T11:36:23.721Z,59.19
2023-06-11T11:37:31.544Z,58.64
2023-06-11T11:38:37.568Z,59.30
2023-06-11T11:39:40.628Z,59.93
2023-06-11T11:40:43.589Z,59.90
2023-06-11T11:41:51.536Z,58.69
2023-06-11T11:42:58.901Z,59.46
2023-06-11T11:44:06.625Z,59.29
2023-06-11T11:45:13.507Z,60.04
2023-06-11T11:46:17.668Z,59.31
2023-06-11T11:47:23.406Z,59.56
2023-06-11T11:48:26.529Z,59.89
2023-06-11T11:49:35.473Z,60.33
2023-06-11T11:50:39.923Z,62.07
2023-06-11T11:51:52.752Z,61.38
2023-06-11T11:53:07.339Z,62.05
2023-06-11T11:54:14.991Z,62.03
2023-06-11T11:55:18.622Z,62.18
2023-06-11T11:56:21.787Z,62.21
2023-06-11T11:57:26.793Z,62.56
2023-06-11T11:58:29.786Z,62.24
2023-06-11T11:59:41.455Z,61.52
2023-06-11T12:00:52.442Z,60.45
2023-06-11T12:01:59.787Z,59.68
2023-06-11T12:03:11.054Z,60.97
2023-06-11T12:04:14.001Z,62.14
2023-06-11T12:05:16.787Z,61.78
2023-06-11T12:06:25.503Z,62.90
2023-06-11T12:07:28.544Z,62.86
2023-06-11T12:08:33.324Z,63.59
2023-06-11T12:09:38.731Z,63.03
2023-06-11T12:10:41.838Z,64.18
2023-06-11T12:12:00.207Z,62.83
2023-06-11T12:13:08.454Z,62.26
2023-06-11T12:14:11.623Z,64.48
2023-06-11T12:15:14.847Z,63.53
2023-06-11T12:16:18.064Z,64.19
2023-06-11T12:17:21.328Z,62.88
2023-06-11T12:18:24.291Z,62.13
2023-06-11T12:19:30.300Z,62.60
2023-06-11T12:20:33.364Z,62.69
2023-06-11T12:21:36.249Z,61.89
2023-06-11T12:22:39.618Z,63.91
2023-06-11T12:23:42.446Z,64.03
2023-06-11T12:24:45.417Z,62.44
2023-06-11T12:25:48.683Z,61.31
2023-06-11T12:26:52.793Z,61.21
2023-06-11T12:27:55.946Z,61.37
2023-06-11T12:28:59.481Z,62.62
2023-06-11T12:30:02.344Z,61.94
2023-06-11T12:31:05.308Z,62.86
2023-06-11T12:32:14.734Z,62.78
2023-06-11T12:33:18.057Z,63.52
2023-06-11T12:34:21.203Z,63.63
2023-06-11T12:35:23.957Z,64.72
2023-06-11T12:36:27.020Z,65.00
2023-06-11T12:37:29.808Z,65.64
2023-06-11T12:38:32.675Z,65.72
2023-06-11T12:39:35.789Z,63.21
2023-06-11T12:40:38.814Z,63.87
2023-06-11T12:41:41.886Z,64.46
2023-06-11T12:42:51.466Z,64.41
2023-06-11T12:43:54.835Z,64.52
2023-06-11T12:44:59.569Z,65.04
2023-06-11T12:46:03.429Z,66.67
2023-06-11T12:47:07.050Z,67.53
2023-06-11T12:48:10.170Z,68.44
2023-06-11T12:49:13.196Z,65.72
2023-06-11T12:50:20.510Z,64.45
2023-06-11T12:51:25.165Z,64.10
2023-06-11T12:52:28.106Z,64.05
2023-06-11T12:53:31.958Z,64.63
2023-06-11T12:54:34.806Z,65.49
2023-06-11T12:55:37.815Z,66.49
2023-06-11T12:56:40.733Z,67.12
2023-06-11T12:57:43.654Z,66.80
2023-06-11T12:58:46.772Z,65.60
2023-06-11T12:59:49.544Z,66.44
2023-06-11T13:00:52.559Z,65.45
2023-06-11T13:01:55.572Z,65.60
2023-06-11T13:02:58.948Z,66.16
2023-06-11T13:04:01.887Z,65.68
2023-06-11T13:05:05.409Z,65.32
2023-06-11T13:06:09.484Z,65.80
2023-06-11T13:07:12.295Z,64.01
2023-06-11T13:08:15.298Z,64.42
2023-06-11T13:09:20.153Z,63.73
2023-06-11T13:10:25.458Z,63.87
2023-06-11T13:11:28.705Z,65.10
2023-06-11T13:12:32.366Z,64.81
2023-06-11T13:13:35.288Z,64.19
2023-06-11T13:14:38.365Z,63.86
2023-06-11T13:15:44.811Z,63.26
2023-06-11T13:16:48.440Z,62.63
2023-06-11T13:17:51.431Z,63.14
2023-06-11T13:18:54.853Z,63.40
2023-06-11T13:19:57.786Z,62.61
2023-06-11T13:21:01.004Z,63.54
2023-06-11T13:22:03.801Z,63.45
2023-06-11T13:23:06.907Z,63.45
2023-06-11T13:24:09.887Z,63.65
2023-06-11T13:25:12.912Z,63.56
2023-06-11T13:26:15.827Z,63.52
2023-06-11T13:27:18.743Z,63.19
2023-06-11T13:28:21.949Z,62.94
2023-06-11T13:29:25.553Z,63.43
2023-06-11T13:30:28.523Z,62.50
2023-06-11T13:31:31.975Z,62.27
2023-06-11T13:32:34.858Z,60.95
2023-06-11T13:33:37.923Z,60.58
2023-06-11T13:34:40.871Z,61.87
2023-06-11T13:35:43.959Z,62.52
2023-06-11T13:36:46.942Z,61.03
2023-06-11T13:37:49.896Z,59.66
2023-06-11T13:38:52.676Z,58.39
2023-06-11T13:39:55.788Z,57.08
2023-06-11T13:40:59.408Z,56.79
2023-06-11T13:42:02.630Z,57.88
2023-06-11T13:43:05.640Z,58.33
2023-06-11T13:44:10.074Z,58.63
2023-06-11T13:45:13.073Z,56.95
2023-06-11T13:46:16.038Z,58.33
2023-06-11T13:47:19.318Z,58.35
2023-06-11T13:48:23.513Z,59.23
2023-06-11T13:49:28.385Z,60.25
2023-06-11T13:50:32.002Z,59.31